Terminal Aerodrome Forecast
Issued by NWS

Home | Current Version | Previous Version | Text Only | Print | Product List | Glossary On
Versions: 1 2 3 4 5 6 7 8 9 10 11 12 13 14 15 16 17 18 19 20 21 22 23 24 25 26 27 28 29 30
000
FTAK31 PAFA 222340
TAFAOR
TAF
PAOR 222340Z 2300/2324 VRB05KT P6SM VCTS SCT070CB BKN100 BKN200
     FM230800 31006KT P6SM VCSH BKN050 BKN080 BKN200
     FM231200 29004KT P6SM -SHRA BKN050 OVC080
     FM232100 VRB03KT P6SM VCTS SCT070CB BKN200=

USA.gov is the U.S. government's official web portal to all federal, state and local government web resources and services.